sensor_id;sensor_type;location;lat;lon;timestamp;pressure;altitude;pressure_sealevel;temperature;humidity
82728;BME280;72459;50.110;8.750;2024-03-02T00:01:33;99544.34;;;6.10;75.41
82728;BME280;72459;50.110;8.750;2024-03-02T00:03:58;99543.25;;;6.05;75.61
82728;BME280;72459;50.110;8.750;2024-03-02T00:06:24;99529.78;;;5.94;75.80
82728;BME280;72459;50.110;8.750;2024-03-02T00:08:49;99532.28;;;5.91;75.65
82728;BME280;72459;50.110;8.750;2024-03-02T00:11:15;99531.38;;;5.91;75.55
82728;BME280;72459;50.110;8.750;2024-03-02T00:13:41;99529.50;;;5.88;75.31
82728;BME280;72459;50.110;8.750;2024-03-02T00:16:06;99524.16;;;5.85;75.16
82728;BME280;72459;50.110;8.750;2024-03-02T00:18:34;99516.19;;;5.82;75.19
82728;BME280;72459;50.110;8.750;2024-03-02T00:21:00;99522.09;;;5.78;75.04
82728;BME280;72459;50.110;8.750;2024-03-02T00:23:29;99517.84;;;5.80;75.74
82728;BME280;72459;50.110;8.750;2024-03-02T00:25:56;99515.22;;;5.80;75.19
82728;BME280;72459;50.110;8.750;2024-03-02T00:28:23;99520.19;;;5.74;75.24
82728;BME280;72459;50.110;8.750;2024-03-02T00:33:21;99525.97;;;5.67;75.52
82728;BME280;72459;50.110;8.750;2024-03-02T00:35:47;99517.13;;;5.63;75.65
82728;BME280;72459;50.110;8.750;2024-03-02T00:38:14;99509.25;;;5.62;75.54
82728;BME280;72459;50.110;8.750;2024-03-02T00:40:41;99503.03;;;5.58;76.05
82728;BME280;72459;50.110;8.750;2024-03-02T00:43:21;99506.19;;;5.51;76.13
82728;BME280;72459;50.110;8.750;2024-03-02T00:45:56;99495.31;;;5.40;76.24
82728;BME280;72459;50.110;8.750;2024-03-02T00:48:22;99500.25;;;5.34;76.20
82728;BME280;72459;50.110;8.750;2024-03-02T00:50:52;99494.72;;;5.27;76.10
82728;BME280;72459;50.110;8.750;2024-03-02T00:53:20;99497.13;;;5.22;76.44
82728;BME280;72459;50.110;8.750;2024-03-02T00:55:49;99505.59;;;5.18;75.56
82728;BME280;72459;50.110;8.750;2024-03-02T00:58:15;99508.91;;;5.14;75.37
82728;BME280;72459;50.110;8.750;2024-03-02T01:00:40;99500.19;;;5.14;75.92
82728;BME280;72459;50.110;8.750;2024-03-02T01:03:06;99501.84;;;5.12;76.10
82728;BME280;72459;50.110;8.750;2024-03-02T01:05:33;99498.47;;;5.14;75.80
82728;BME280;72459;50.110;8.750;2024-03-02T01:07:59;99511.16;;;5.06;76.22
82728;BME280;72459;50.110;8.750;2024-03-02T01:10:24;99508.50;;;5.05;75.89
82728;BME280;72459;50.110;8.750;2024-03-02T01:12:51;99512.81;;;5.04;75.54
82728;BME280;72459;50.110;8.750;2024-03-02T01:15:16;99513.63;;;5.03;76.19
82728;BME280;72459;50.110;8.750;2024-03-02T01:17:42;99517.00;;;5.01;75.78
82728;BME280;72459;50.110;8.750;2024-03-02T01:20:10;99514.47;;;5.02;75.87
82728;BME280;72459;50.110;8.750;2024-03-02T01:22:35;99516.25;;;5.03;75.85
82728;BME280;72459;50.110;8.750;2024-03-02T01:25:01;99519.53;;;4.99;75.74
82728;BME280;72459;50.110;8.750;2024-03-02T01:27:27;99513.44;;;4.99;79.54
82728;BME280;72459;50.110;8.750;2024-03-02T01:29:53;99521.38;;;5.02;76.04
82728;BME280;72459;50.110;8.750;2024-03-02T01:32:20;99519.66;;;5.02;75.85
82728;BME280;72459;50.110;8.750;2024-03-02T01:34:45;99525.63;;;5.00;76.44
82728;BME280;72459;50.110;8.750;2024-03-02T01:37:10;99526.66;;;5.03;76.14
82728;BME280;72459;50.110;8.750;2024-03-02T01:39:36;99527.41;;;5.01;76.21
82728;BME280;72459;50.110;8.750;2024-03-02T01:42:01;99530.91;;;5.01;75.74
82728;BME280;72459;50.110;8.750;2024-03-02T01:44:27;99519.47;;;4.98;77.95
82728;BME280;72459;50.110;8.750;2024-03-02T01:46:52;99515.06;;;4.97;76.08
82728;BME280;72459;50.110;8.750;2024-03-02T01:49:17;99513.31;;;4.96;77.26
82728;BME280;72459;50.110;8.750;2024-03-02T01:51:44;99511.38;;;4.92;77.52
82728;BME280;72459;50.110;8.750;2024-03-02T01:54:09;99508.09;;;4.96;75.81
82728;BME280;72459;50.110;8.750;2024-03-02T01:56:34;99510.69;;;4.96;75.77
82728;BME280;72459;50.110;8.750;2024-03-02T01:59:00;99504.66;;;4.97;75.91
82728;BME280;72459;50.110;8.750;2024-03-02T02:01:25;99499.38;;;4.95;75.71
82728;BME280;72459;50.110;8.750;2024-03-02T02:03:52;99493.22;;;4.93;76.08
82728;BME280;72459;50.110;8.750;2024-03-02T02:06:17;99491.31;;;4.89;75.49
82728;BME280;72459;50.110;8.750;2024-03-02T02:08:43;99483.44;;;4.88;76.13
82728;BME280;72459;50.110;8.750;2024-03-02T02:11:08;99484.13;;;4.84;75.84
82728;BME280;72459;50.110;8.750;2024-03-02T02:13:33;99483.84;;;4.77;76.06
82728;BME280;72459;50.110;8.750;2024-03-02T02:16:09;99476.03;;;4.77;76.01
82728;BME280;72459;50.110;8.750;2024-03-02T02:18:35;99471.44;;;4.72;76.04
82728;BME280;72459;50.110;8.750;2024-03-02T02:21:01;99460.84;;;4.67;76.20
82728;BME280;72459;50.110;8.750;2024-03-02T02:23:27;99470.16;;;4.62;76.03
82728;BME280;72459;50.110;8.750;2024-03-02T02:25:52;99464.72;;;4.58;76.46
82728;BME280;72459;50.110;8.750;2024-03-02T02:28:17;99474.00;;;4.53;76.49
82728;BME280;72459;50.110;8.750;2024-03-02T02:30:43;99470.38;;;4.49;76.57
82728;BME280;72459;50.110;8.750;2024-03-02T02:33:08;99464.97;;;4.44;75.98
82728;BME280;72459;50.110;8.750;2024-03-02T02:35:34;99461.34;;;4.41;76.42
82728;BME280;72459;50.110;8.750;2024-03-02T02:38:00;99464.63;;;4.37;76.45
82728;BME280;72459;50.110;8.750;2024-03-02T02:40:27;99466.13;;;4.32;76.81
82728;BME280;72459;50.110;8.750;2024-03-02T02:42:56;99464.19;;;4.28;76.76
82728;BME280;72459;50.110;8.750;2024-03-02T02:45:21;99465.00;;;4.27;76.29
82728;BME280;72459;50.110;8.750;2024-03-02T02:47:46;99467.53;;;4.25;76.51
82728;BME280;72459;50.110;8.750;2024-03-02T02:50:12;99463.97;;;4.23;76.55
82728;BME280;72459;50.110;8.750;2024-03-02T02:52:39;99454.38;;;4.22;76.60
82728;BME280;72459;50.110;8.750;2024-03-02T02:55:07;99462.25;;;4.24;76.12
82728;BME280;72459;50.110;8.750;2024-03-02T02:57:33;99462.78;;;4.17;77.73
82728;BME280;72459;50.110;8.750;2024-03-02T03:00:12;99463.63;;;4.16;76.42
82728;BME280;72459;50.110;8.750;2024-03-02T03:02:42;99450.53;;;4.14;76.38
82728;BME280;72459;50.110;8.750;2024-03-02T03:05:08;99451.44;;;4.14;76.15
82728;BME280;72459;50.110;8.750;2024-03-02T03:07:34;99453.91;;;4.11;76.18
82728;BME280;72459;50.110;8.750;2024-03-02T03:10:00;99456.41;;;4.10;76.53
82728;BME280;72459;50.110;8.750;2024-03-02T03:12:26;99449.44;;;4.09;76.95
82728;BME280;72459;50.110;8.750;2024-03-02T03:14:52;99447.88;;;4.12;76.85
82728;BME280;72459;50.110;8.750;2024-03-02T03:17:17;99448.63;;;4.10;76.21
82728;BME280;72459;50.110;8.750;2024-03-02T03:19:43;99446.78;;;4.07;76.13
82728;BME280;72459;50.110;8.750;2024-03-02T03:22:09;99440.75;;;4.08;76.49
82728;BME280;72459;50.110;8.750;2024-03-02T03:24:34;99453.47;;;4.02;76.62
82728;BME280;72459;50.110;8.750;2024-03-02T03:26:59;99456.72;;;3.98;76.08
82728;BME280;72459;50.110;8.750;2024-03-02T03:29:25;99445.59;;;4.01;76.31
82728;BME280;72459;50.110;8.750;2024-03-02T03:31:50;99445.59;;;4.01;77.04
82728;BME280;72459;50.110;8.750;2024-03-02T03:34:16;99439.34;;;3.97;76.31
82728;BME280;72459;50.110;8.750;2024-03-02T03:36:42;99434.91;;;3.95;76.39
82728;BME280;72459;50.110;8.750;2024-03-02T03:39:07;99442.69;;;3.95;76.32
82728;BME280;72459;50.110;8.750;2024-03-02T03:41:32;99445.38;;;3.96;76.56
82728;BME280;72459;50.110;8.750;2024-03-02T03:43:58;99442.63;;;3.93;76.12
82728;BME280;72459;50.110;8.750;2024-03-02T03:46:23;99441.56;;;3.90;76.08
82728;BME280;72459;50.110;8.750;2024-03-02T03:48:49;99440.84;;;3.92;76.85
82728;BME280;72459;50.110;8.750;2024-03-02T03:51:14;99435.47;;;3.89;76.71
82728;BME280;72459;50.110;8.750;2024-03-02T03:53:39;99437.28;;;3.90;76.31
82728;BME280;72459;50.110;8.750;2024-03-02T03:56:05;99451.19;;;3.91;76.71
82728;BME280;72459;50.110;8.750;2024-03-02T03:58:30;99448.25;;;3.85;77.10
82728;BME280;72459;50.110;8.750;2024-03-02T04:00:56;99450.84;;;3.85;76.48
82728;BME280;72459;50.110;8.750;2024-03-02T04:03:21;99466.22;;;3.80;77.08
82728;BME280;72459;50.110;8.750;2024-03-02T04:05:47;99454.03;;;3.79;77.04
82728;BME280;72459;50.110;8.750;2024-03-02T04:08:12;99452.41;;;3.81;76.26
82728;BME280;72459;50.110;8.750;2024-03-02T04:10:37;99459.38;;;3.82;76.63
82728;BME280;72459;50.110;8.750;2024-03-02T04:13:03;99456.72;;;3.80;76.68
82728;BME280;72459;50.110;8.750;2024-03-02T04:15:28;99449.59;;;3.76;77.12
82728;BME280;72459;50.110;8.750;2024-03-02T04:17:54;99453.16;;;3.78;77.11
82728;BME280;72459;50.110;8.750;2024-03-02T04:20:20;99450.47;;;3.77;76.16
82728;BME280;72459;50.110;8.750;2024-03-02T04:22:45;99447.00;;;3.76;76.67
82728;BME280;72459;50.110;8.750;2024-03-02T04:25:11;99441.88;;;3.78;76.95
82728;BME280;72459;50.110;8.750;2024-03-02T04:27:36;99448.84;;;3.79;76.85
82728;BME280;72459;50.110;8.750;2024-03-02T04:30:03;99448.78;;;3.77;76.83
82728;BME280;72459;50.110;8.750;2024-03-02T04:32:28;99442.69;;;3.77;77.00
82728;BME280;72459;50.110;8.750;2024-03-02T04:34:54;99460.72;;;3.74;76.47
82728;BME280;72459;50.110;8.750;2024-03-02T04:37:19;99458.94;;;3.73;77.21
82728;BME280;72459;50.110;8.750;2024-03-02T04:39:45;99460.66;;;3.72;76.99
82728;BME280;72459;50.110;8.750;2024-03-02T04:42:10;99459.53;;;3.67;78.60
82728;BME280;72459;50.110;8.750;2024-03-02T04:44:35;99457.97;;;3.71;77.00
82728;BME280;72459;50.110;8.750;2024-03-02T04:47:03;99456.34;;;3.73;77.06
82728;BME280;72459;50.110;8.750;2024-03-02T04:49:28;99459.09;;;3.76;76.72
82728;BME280;72459;50.110;8.750;2024-03-02T04:51:54;99455.59;;;3.75;76.85
82728;BME280;72459;50.110;8.750;2024-03-02T04:54:19;99449.59;;;3.76;77.27
82728;BME280;72459;50.110;8.750;2024-03-02T04:56:44;99461.47;;;3.71;76.79
82728;BME280;72459;50.110;8.750;2024-03-02T04:59:14;99461.25;;;3.67;77.71
82728;BME280;72459;50.110;8.750;2024-03-02T05:01:39;99467.34;;;3.67;77.30
82728;BME280;72459;50.110;8.750;2024-03-02T05:04:05;99469.03;;;3.67;76.79
82728;BME280;72459;50.110;8.750;2024-03-02T05:06:30;99465.47;;;3.65;76.51
82728;BME280;72459;50.110;8.750;2024-03-02T05:08:55;99472.44;;;3.66;77.07
82728;BME280;72459;50.110;8.750;2024-03-02T05:11:21;99467.19;;;3.64;76.58
82728;BME280;72459;50.110;8.750;2024-03-02T05:14:02;99464.59;;;3.64;77.09
82728;BME280;72459;50.110;8.750;2024-03-02T05:16:27;99468.81;;;3.62;76.98
82728;BME280;72459;50.110;8.750;2024-03-02T05:18:53;99468.66;;;3.59;77.41
82728;BME280;72459;50.110;8.750;2024-03-02T05:21:18;99466.22;;;3.62;76.94
82728;BME280;72459;50.110;8.750;2024-03-02T05:23:43;99470.59;;;3.63;76.79
82728;BME280;72459;50.110;8.750;2024-03-02T05:26:09;99463.63;;;3.62;77.38
82728;BME280;72459;50.110;8.750;2024-03-02T05:28:38;99468.75;;;3.61;76.76
82728;BME280;72459;50.110;8.750;2024-03-02T05:31:04;99468.59;;;3.58;77.03
82728;BME280;72459;50.110;8.750;2024-03-02T05:33:29;99474.53;;;3.55;80.06
82728;BME280;72459;50.110;8.750;2024-03-02T05:35:57;99490.19;;;3.57;77.35
82728;BME280;72459;50.110;8.750;2024-03-02T05:38:22;99478.09;;;3.57;76.92
82728;BME280;72459;50.110;8.750;2024-03-02T05:40:48;99486.03;;;3.60;78.88
82728;BME280;72459;50.110;8.750;2024-03-02T05:43:13;99487.81;;;3.61;77.54
82728;BME280;72459;50.110;8.750;2024-03-02T05:45:39;99492.28;;;3.64;76.58
82728;BME280;72459;50.110;8.750;2024-03-02T05:48:08;99498.28;;;3.63;76.71
82728;BME280;72459;50.110;8.750;2024-03-02T05:50:34;99487.88;;;3.63;77.43
82728;BME280;72459;50.110;8.750;2024-03-02T05:52:59;99495.03;;;3.67;76.86
82728;BME280;72459;50.110;8.750;2024-03-02T05:55:25;99493.38;;;3.69;77.67
82728;BME280;72459;50.110;8.750;2024-03-02T05:57:50;99501.25;;;3.70;77.03
82728;BME280;72459;50.110;8.750;2024-03-02T06:00:31;99500.59;;;3.74;76.80
82728;BME280;72459;50.110;8.750;2024-03-02T06:02:56;99509.28;;;3.75;77.03
82728;BME280;72459;50.110;8.750;2024-03-02T06:05:21;99506.75;;;3.76;76.98
82728;BME280;72459;50.110;8.750;2024-03-02T06:07:47;99510.31;;;3.78;77.18
82728;BME280;72459;50.110;8.750;2024-03-02T06:10:12;99512.25;;;3.82;76.69
82728;BME280;72459;50.110;8.750;2024-03-02T06:12:38;99510.63;;;3.85;78.42
82728;BME280;72459;50.110;8.750;2024-03-02T06:15:03;99505.91;;;3.94;77.07
82728;BME280;72459;50.110;8.750;2024-03-02T06:17:29;99519.41;;;4.04;77.20
82728;BME280;72459;50.110;8.750;2024-03-02T06:19:54;99516.16;;;4.08;76.79
82728;BME280;72459;50.110;8.750;2024-03-02T06:22:20;99526.69;;;4.11;76.39
82728;BME280;72459;50.110;8.750;2024-03-02T06:24:46;99526.84;;;4.14;76.92
82728;BME280;72459;50.110;8.750;2024-03-02T06:27:12;99518.22;;;4.16;76.87
82728;BME280;72459;50.110;8.750;2024-03-02T06:29:37;99520.00;;;4.17;76.93
82728;BME280;72459;50.110;8.750;2024-03-02T06:32:02;99530.25;;;4.13;77.12
82728;BME280;72459;50.110;8.750;2024-03-02T06:34:28;99533.81;;;4.16;76.72
82728;BME280;72459;50.110;8.750;2024-03-02T06:36:53;99532.34;;;4.21;76.83
82728;BME280;72459;50.110;8.750;2024-03-02T06:39:19;99526.53;;;4.26;77.23
82728;BME280;72459;50.110;8.750;2024-03-02T06:41:44;99529.56;;;4.35;76.82
82728;BME280;72459;50.110;8.750;2024-03-02T06:44:12;99541.28;;;4.45;76.63
82728;BME280;72459;50.110;8.750;2024-03-02T06:46:37;99543.44;;;4.54;76.68
82728;BME280;72459;50.110;8.750;2024-03-02T06:49:03;99538.69;;;4.63;77.04
82728;BME280;72459;50.110;8.750;2024-03-02T06:51:29;99539.88;;;4.69;77.25
82728;BME280;72459;50.110;8.750;2024-03-02T06:53:54;99540.91;;;4.73;77.42
82728;BME280;72459;50.110;8.750;2024-03-02T06:56:20;99526.16;;;4.73;77.38
82728;BME280;72459;50.110;8.750;2024-03-02T06:58:46;99536.31;;;4.67;76.84
82728;BME280;72459;50.110;8.750;2024-03-02T07:01:12;99541.22;;;4.61;78.09
82728;BME280;72459;50.110;8.750;2024-03-02T07:03:37;99545.06;;;4.69;77.19
82728;BME280;72459;50.110;8.750;2024-03-02T07:06:04;99538.50;;;4.77;77.09
82728;BME280;72459;50.110;8.750;2024-03-02T07:08:30;99537.00;;;4.83;76.47
82728;BME280;72459;50.110;8.750;2024-03-02T07:10:56;99543.31;;;4.88;77.35
82728;BME280;72459;50.110;8.750;2024-03-02T07:13:22;99531.31;;;4.91;77.46
82728;BME280;72459;50.110;8.750;2024-03-02T07:15:47;99530.34;;;4.89;77.43
82728;BME280;72459;50.110;8.750;2024-03-02T07:18:28;99539.75;;;4.86;77.48
82728;BME280;72459;50.110;8.750;2024-03-02T07:20:53;99541.25;;;4.81;77.67
82728;BME280;72459;50.110;8.750;2024-03-02T07:23:18;99548.84;;;4.76;77.74
82728;BME280;72459;50.110;8.750;2024-03-02T07:25:45;99550.56;;;4.75;76.62
82728;BME280;72459;50.110;8.750;2024-03-02T07:28:11;99555.22;;;4.83;77.02
82728;BME280;72459;50.110;8.750;2024-03-02T07:30:36;99554.53;;;4.87;77.34
82728;BME280;72459;50.110;8.750;2024-03-02T07:33:03;99554.81;;;4.93;76.91
82728;BME280;72459;50.110;8.750;2024-03-02T07:35:29;99551.66;;;5.00;77.45
82728;BME280;72459;50.110;8.750;2024-03-02T07:37:57;99552.09;;;5.09;76.88
82728;BME280;72459;50.110;8.750;2024-03-02T07:40:23;99548.94;;;5.16;77.40
82728;BME280;72459;50.110;8.750;2024-03-02T07:42:49;99544.97;;;5.24;77.13
82728;BME280;72459;50.110;8.750;2024-03-02T07:45:14;99553.94;;;5.31;78.31
82728;BME280;72459;50.110;8.750;2024-03-02T07:47:40;99557.84;;;5.40;76.47
82728;BME280;72459;50.110;8.750;2024-03-02T07:50:06;99557.22;;;5.46;76.53
82728;BME280;72459;50.110;8.750;2024-03-02T07:52:32;99557.03;;;5.41;76.77
82728;BME280;72459;50.110;8.750;2024-03-02T07:54:58;99559.28;;;5.34;78.88
82728;BME280;72459;50.110;8.750;2024-03-02T07:57:24;99556.00;;;5.38;77.23
82728;BME280;72459;50.110;8.750;2024-03-02T07:59:49;99561.97;;;5.35;76.99
82728;BME280;72459;50.110;8.750;2024-03-02T08:02:15;99569.09;;;5.39;76.92
82728;BME280;72459;50.110;8.750;2024-03-02T08:04:41;99564.41;;;5.52;77.54
82728;BME280;72459;50.110;8.750;2024-03-02T08:07:07;99572.38;;;5.76;77.88
82728;BME280;72459;50.110;8.750;2024-03-02T08:09:32;99568.59;;;6.08;76.90
82728;BME280;72459;50.110;8.750;2024-03-02T08:11:57;99566.25;;;6.36;77.04
82728;BME280;72459;50.110;8.750;2024-03-02T08:14:23;99561.84;;;6.56;77.85
82728;BME280;72459;50.110;8.750;2024-03-02T08:16:49;99560.00;;;6.98;77.01
82728;BME280;72459;50.110;8.750;2024-03-02T08:19:15;99566.38;;;7.28;76.38
82728;BME280;72459;50.110;8.750;2024-03-02T08:21:41;99562.44;;;7.40;75.92
82728;BME280;72459;50.110;8.750;2024-03-02T08:24:07;99559.88;;;7.41;75.85
82728;BME280;72459;50.110;8.750;2024-03-02T08:29:08;99572.72;;;7.35;76.17
82728;BME280;72459;50.110;8.750;2024-03-02T08:31:33;99570.03;;;7.57;76.44
82728;BME280;72459;50.110;8.750;2024-03-02T08:33:59;99570.44;;;7.93;76.51
82728;BME280;72459;50.110;8.750;2024-03-02T08:36:24;99564.75;;;8.32;76.34
82728;BME280;72459;50.110;8.750;2024-03-02T08:38:50;99567.06;;;8.48;75.29
82728;BME280;72459;50.110;8.750;2024-03-02T08:41:16;99564.94;;;8.64;75.25
82728;BME280;72459;50.110;8.750;2024-03-02T08:43:42;99566.19;;;8.76;74.93
82728;BME280;72459;50.110;8.750;2024-03-02T08:46:08;99568.25;;;8.86;75.38
82728;BME280;72459;50.110;8.750;2024-03-02T08:48:34;99578.78;;;8.88;75.24
82728;BME280;72459;50.110;8.750;2024-03-02T08:50:59;99573.41;;;9.12;75.76
82728;BME280;72459;50.110;8.750;2024-03-02T08:53:25;99574.66;;;9.25;75.74
82728;BME280;72459;50.110;8.750;2024-03-02T08:55:50;99580.59;;;9.19;74.29
82728;BME280;72459;50.110;8.750;2024-03-02T08:58:16;99580.44;;;9.13;73.18
82728;BME280;72459;50.110;8.750;2024-03-02T09:00:41;99580.59;;;9.19;73.82
82728;BME280;72459;50.110;8.750;2024-03-02T09:03:07;99588.28;;;9.43;74.28
82728;BME280;72459;50.110;8.750;2024-03-02T09:05:32;99583.22;;;9.49;73.58
82728;BME280;72459;50.110;8.750;2024-03-02T09:07:58;99577.22;;;9.53;74.49
82728;BME280;72459;50.110;8.750;2024-03-02T09:10:23;99580.00;;;9.59;75.58
82728;BME280;72459;50.110;8.750;2024-03-02T09:12:48;99580.00;;;9.91;75.91
82728;BME280;72459;50.110;8.750;2024-03-02T09:15:15;99577.97;;;10.13;75.26
82728;BME280;72459;50.110;8.750;2024-03-02T09:17:40;99570.53;;;10.30;74.90
82728;BME280;72459;50.110;8.750;2024-03-02T09:20:06;99568.44;;;10.17;72.95
82728;BME280;72459;50.110;8.750;2024-03-02T09:22:32;99568.97;;;10.38;74.92
82728;BME280;72459;50.110;8.750;2024-03-02T09:24:57;99568.25;;;10.42;70.02
82728;BME280;72459;50.110;8.750;2024-03-02T09:27:23;99565.13;;;10.59;74.94
82728;BME280;72459;50.110;8.750;2024-03-02T09:29:48;99565.81;;;10.89;74.71
82728;BME280;72459;50.110;8.750;2024-03-02T09:32:14;99568.72;;;11.01;73.83
82728;BME280;72459;50.110;8.750;2024-03-02T09:34:40;99559.34;;;11.13;74.28
82728;BME280;72459;50.110;8.750;2024-03-02T09:37:06;99565.50;;;11.13;73.68
82728;BME280;72459;50.110;8.750;2024-03-02T09:39:31;99571.59;;;11.12;72.85
82728;BME280;72459;50.110;8.750;2024-03-02T09:41:57;99560.56;;;11.30;73.54
82728;BME280;72459;50.110;8.750;2024-03-02T09:44:23;99553.97;;;11.50;73.65
82728;BME280;72459;50.110;8.750;2024-03-02T09:46:50;99560.72;;;11.80;73.37
82728;BME280;72459;50.110;8.750;2024-03-02T09:49:16;99561.97;;;12.00;73.28
82728;BME280;72459;50.110;8.750;2024-03-02T09:51:47;99560.66;;;12.25;73.13
82728;BME280;72459;50.110;8.750;2024-03-02T09:54:12;99556.03;;;12.12;70.35
82728;BME280;72459;50.110;8.750;2024-03-02T09:56:38;99548.84;;;12.01;70.45
82728;BME280;72459;50.110;8.750;2024-03-02T09:59:04;99558.66;;;12.63;73.31
82728;BME280;72459;50.110;8.750;2024-03-02T10:01:30;99549.56;;;13.01;72.42
82728;BME280;72459;50.110;8.750;2024-03-02T10:03:59;99554.25;;;13.21;71.59
82728;BME280;72459;50.110;8.750;2024-03-02T10:06:26;99556.19;;;13.36;72.43
82728;BME280;72459;50.110;8.750;2024-03-02T10:08:52;99550.19;;;13.50;72.25
82728;BME280;72459;50.110;8.750;2024-03-02T10:11:31;99545.84;;;13.55;71.65
82728;BME280;72459;50.110;8.750;2024-03-02T10:14:11;99544.97;;;13.56;72.34
82728;BME280;72459;50.110;8.750;2024-03-02T10:16:38;99547.84;;;13.75;67.75
82728;BME280;72459;50.110;8.750;2024-03-02T10:19:33;99547.25;;;14.03;72.56
82728;BME280;72459;50.110;8.750;2024-03-02T10:22:07;99540.50;;;14.36;71.95
82728;BME280;72459;50.110;8.750;2024-03-02T10:24:39;99541.53;;;14.48;71.34
82728;BME280;72459;50.110;8.750;2024-03-02T10:29:37;99534.97;;;14.08;69.05
82728;BME280;72459;50.110;8.750;2024-03-02T10:32:04;99531.16;;;13.77;68.98
82728;BME280;72459;50.110;8.750;2024-03-02T10:34:30;99532.59;;;13.51;69.61
82728;BME280;72459;50.110;8.750;2024-03-02T10:36:56;99532.59;;;13.49;70.27
82728;BME280;72459;50.110;8.750;2024-03-02T10:39:24;99532.66;;;13.55;70.70
82728;BME280;72459;50.110;8.750;2024-03-02T10:41:50;99532.03;;;13.76;71.07
82728;BME280;72459;50.110;8.750;2024-03-02T10:44:17;99528.59;;;13.86;72.24
82728;BME280;72459;50.110;8.750;2024-03-02T10:46:43;99523.34;;;13.91;71.19
82728;BME280;72459;50.110;8.750;2024-03-02T10:49:10;99528.44;;;13.71;69.40
82728;BME280;72459;50.110;8.750;2024-03-02T10:51:36;99518.75;;;13.69;69.80
82728;BME280;72459;50.110;8.750;2024-03-02T10:54:03;99514.00;;;13.39;69.93
82728;BME280;72459;50.110;8.750;2024-03-02T10:56:33;99508.38;;;13.14;70.42
82728;BME280;72459;50.110;8.750;2024-03-02T10:59:03;99509.75;;;12.85;70.87
82728;BME280;72459;50.110;8.750;2024-03-02T11:01:32;99506.75;;;12.59;70.98
82728;BME280;72459;50.110;8.750;2024-03-02T11:03:59;99504.94;;;12.55;70.48
82728;BME280;72459;50.110;8.750;2024-03-02T11:06:28;99500.56;;;12.57;70.72
82728;BME280;72459;50.110;8.750;2024-03-02T11:08:55;99492.38;;;12.38;67.89
82728;BME280;72459;50.110;8.750;2024-03-02T11:11:29;99493.25;;;12.37;70.38
82728;BME280;72459;50.110;8.750;2024-03-02T11:13:57;99501.47;;;12.59;71.73
82728;BME280;72459;50.110;8.750;2024-03-02T11:16:32;99495.56;;;12.77;70.38
82728;BME280;72459;50.110;8.750;2024-03-02T11:19:11;99496.25;;;12.62;70.09
82728;BME280;72459;50.110;8.750;2024-03-02T11:21:38;99492.47;;;12.45;70.56
82728;BME280;72459;50.110;8.750;2024-03-02T11:26:53;99494.22;;;12.44;69.85
82728;BME280;72459;50.110;8.750;2024-03-02T11:32:05;99480.78;;;12.29;68.88
82728;BME280;72459;50.110;8.750;2024-03-02T11:34:31;99486.75;;;12.17;69.42
82728;BME280;72459;50.110;8.750;2024-03-02T11:37:03;99482.56;;;12.30;70.45
82728;BME280;72459;50.110;8.750;2024-03-02T11:39:30;99479.09;;;12.32;70.51
82728;BME280;72459;50.110;8.750;2024-03-02T11:41:59;99473.78;;;12.29;68.98
82728;BME280;72459;50.110;8.750;2024-03-02T11:44:26;99464.94;;;12.26;70.45
82728;BME280;72459;50.110;8.750;2024-03-02T11:46:53;99473.72;;;12.26;69.31
82728;BME280;72459;50.110;8.750;2024-03-02T11:49:44;99463.28;;;12.32;68.90
82728;BME280;72459;50.110;8.750;2024-03-02T11:52:12;99464.28;;;12.37;67.98
82728;BME280;72459;50.110;8.750;2024-03-02T11:54:39;99464.41;;;12.47;68.01
82728;BME280;72459;50.110;8.750;2024-03-02T11:57:06;99457.44;;;12.52;67.91
82728;BME280;72459;50.110;8.750;2024-03-02T11:59:32;99454.94;;;12.61;66.50
82728;BME280;72459;50.110;8.750;2024-03-02T12:01:58;99450.88;;;12.87;68.42
82728;BME280;72459;50.110;8.750;2024-03-02T12:04:25;99442.41;;;13.11;69.66
82728;BME280;72459;50.110;8.750;2024-03-02T12:06:55;99444.31;;;13.23;64.90
82728;BME280;72459;50.110;8.750;2024-03-02T12:09:23;99438.88;;;13.11;65.46
82728;BME280;72459;50.110;8.750;2024-03-02T12:12:01;99433.03;;;13.36;68.61
82728;BME280;72459;50.110;8.750;2024-03-02T12:14:26;99433.69;;;13.17;62.02
82728;BME280;72459;50.110;8.750;2024-03-02T12:16:54;99426.78;;;13.28;63.63
82728;BME280;72459;50.110;8.750;2024-03-02T12:19:20;99421.69;;;13.46;69.23
82728;BME280;72459;50.110;8.750;2024-03-02T12:21:46;99416.44;;;13.49;68.96
82728;BME280;72459;50.110;8.750;2024-03-02T12:24:11;99403.38;;;13.64;69.23
82728;BME280;72459;50.110;8.750;2024-03-02T12:26:37;99413.16;;;13.72;68.85
82728;BME280;72459;50.110;8.750;2024-03-02T12:29:02;99409.63;;;13.71;68.94
82728;BME280;72459;50.110;8.750;2024-03-02T12:31:28;99409.47;;;13.57;67.43
82728;BME280;72459;50.110;8.750;2024-03-02T12:33:54;99404.16;;;13.54;67.40
82728;BME280;72459;50.110;8.750;2024-03-02T12:36:19;99396.31;;;13.63;68.44
82728;BME280;72459;50.110;8.750;2024-03-02T12:38:45;99399.03;;;13.70;68.70
82728;BME280;72459;50.110;8.750;2024-03-02T12:41:14;99392.00;;;13.69;66.57
82728;BME280;72459;50.110;8.750;2024-03-02T12:43:40;99384.84;;;13.60;66.93
82728;BME280;72459;50.110;8.750;2024-03-02T12:46:05;99382.19;;;13.57;69.05
82728;BME280;72459;50.110;8.750;2024-03-02T12:48:31;99378.56;;;13.46;67.57
82728;BME280;72459;50.110;8.750;2024-03-02T12:50:56;99375.94;;;13.47;67.62
82728;BME280;72459;50.110;8.750;2024-03-02T12:53:22;99375.91;;;13.43;68.50
82728;BME280;72459;50.110;8.750;2024-03-02T12:55:48;99371.53;;;13.48;67.11
82728;BME280;72459;50.110;8.750;2024-03-02T12:58:20;99367.06;;;13.39;62.13
82728;BME280;72459;50.110;8.750;2024-03-02T13:00:48;99367.06;;;13.39;66.40
82728;BME280;72459;50.110;8.750;2024-03-02T13:03:14;99370.53;;;13.32;66.77
82728;BME280;72459;50.110;8.750;2024-03-02T13:05:40;99374.06;;;13.36;67.54
82728;BME280;72459;50.110;8.750;2024-03-02T13:08:06;99371.44;;;13.36;66.15
82728;BME280;72459;50.110;8.750;2024-03-02T13:10:32;99370.53;;;13.33;66.27
82728;BME280;72459;50.110;8.750;2024-03-02T13:12:58;99360.84;;;13.31;65.72
82728;BME280;72459;50.110;8.750;2024-03-02T13:15:26;99364.38;;;13.33;61.74
82728;BME280;72459;50.110;8.750;2024-03-02T13:17:52;99351.22;;;13.39;67.87